SBFZ/FOR METAR and TAF weather

Enter ICAO airport designator
Station Type Date Time Source
SBFZ METAR 2019/11/15 05:00 UTC NOAA

SBFZ 150500Z 08011KT 9999 SCT019 27/22 Q1009


Station Type Date Time Source
SBFZ Decoded METAR 2019/11/15 05:00 UTC NOAA

Fortaleza / pinto Martins , Brazil (SBFZ) 03-47S 038-32W 25M
Nov 15, 2019 - 12:00 AM EST / 2019.11.15 0500 UTC
Wind: from the E (080 degrees) at 13 MPH (11 KT):0
Visibility: greater than 7 mile(s):0
Sky conditions: partly cloudy
Temperature: 80 F (27 C)
Dew Point: 71 F (22 C)
Relative Humidity: 74%
Pressure (altimeter): 29.80 in. Hg (1009 hPa)
ob: SBFZ 150500Z 08011KT 9999 SCT019 27/22 Q1009
cycle: 5

Station Type Date Time Source
SBFZ TAF 2019/11/15 06:18 UTC NOAA

TAF TAF SBFZ 150400Z 1506/1606 12008KT 9999 BKN023 TN26/1508Z TX31/1515Z
BECMG 1513/1515 12015KT SCT030
BECMG 1518/1520 08008KT CAVOK
BECMG 1600/1602 9999 SCT018
RMK PAY

Example: see airport list